sensor_id;sensor_type;location;lat;lon;timestamp;P1;durP1;ratioP1;P2;durP2;ratioP2
21862;SDS011;11096;51.338;12.524;2022-09-09T00:01:49;2.97;;;1.55;;
21862;SDS011;11096;51.338;12.524;2022-09-09T00:04:29;4.35;;;1.83;;
21862;SDS011;11096;51.338;12.524;2022-09-09T00:15:57;1.52;;;1.42;;
21862;SDS011;11096;51.338;12.524;2022-09-09T00:21:10;2.75;;;1.90;;
21862;SDS011;11096;51.338;12.524;2022-09-09T00:23:43;1.75;;;1.65;;
21862;SDS011;11096;51.338;12.524;2022-09-09T00:26:20;1.70;;;1.60;;
21862;SDS011;11096;51.338;12.524;2022-09-09T00:31:32;1.70;;;1.60;;
21862;SDS011;11096;51.338;12.524;2022-09-09T00:33:58;2.60;;;1.60;;
21862;SDS011;11096;51.338;12.524;2022-09-09T00:36:28;3.22;;;1.73;;
21862;SDS011;11096;51.338;12.524;2022-09-09T00:38:59;3.22;;;1.40;;
21862;SDS011;11096;51.338;12.524;2022-09-09T00:44:25;2.75;;;1.88;;
21862;SDS011;11096;51.338;12.524;2022-09-09T00:50:00;6.03;;;1.80;;
21862;SDS011;11096;51.338;12.524;2022-09-09T00:57:57;2.42;;;1.52;;
21862;SDS011;11096;51.338;12.524;2022-09-09T01:00:36;3.80;;;1.83;;
21862;SDS011;11096;51.338;12.524;2022-09-09T01:06:11;2.38;;;1.45;;
21862;SDS011;11096;51.338;12.524;2022-09-09T01:14:38;2.55;;;1.25;;
21862;SDS011;11096;51.338;12.524;2022-09-09T01:17:12;3.50;;;1.67;;
21862;SDS011;11096;51.338;12.524;2022-09-09T01:27:38;2.90;;;1.30;;
21862;SDS011;11096;51.338;12.524;2022-09-09T01:30:10;1.73;;;1.23;;
21862;SDS011;11096;51.338;12.524;2022-09-09T01:32:39;1.48;;;1.27;;
21862;SDS011;11096;51.338;12.524;2022-09-09T01:35:08;5.15;;;1.45;;
21862;SDS011;11096;51.338;12.524;2022-09-09T01:37:55;1.80;;;1.30;;
21862;SDS011;11096;51.338;12.524;2022-09-09T01:40:21;1.45;;;1.35;;
21862;SDS011;11096;51.338;12.524;2022-09-09T01:42:47;2.00;;;1.30;;
21862;SDS011;11096;51.338;12.524;2022-09-09T01:45:12;2.55;;;1.35;;
21862;SDS011;11096;51.338;12.524;2022-09-09T01:47:37;2.05;;;1.20;;
21862;SDS011;11096;51.338;12.524;2022-09-09T01:50:03;3.72;;;1.45;;
21862;SDS011;11096;51.338;12.524;2022-09-09T01:52:30;3.40;;;1.40;;
21862;SDS011;11096;51.338;12.524;2022-09-09T01:54:57;3.33;;;1.40;;
21862;SDS011;11096;51.338;12.524;2022-09-09T02:00:19;5.68;;;1.60;;
21862;SDS011;11096;51.338;12.524;2022-09-09T02:02:50;1.33;;;1.23;;
21862;SDS011;11096;51.338;12.524;2022-09-09T02:10:46;3.53;;;1.10;;
21862;SDS011;11096;51.338;12.524;2022-09-09T02:13:19;3.22;;;1.40;;
21862;SDS011;11096;51.338;12.524;2022-09-09T02:15:55;2.83;;;1.23;;
21862;SDS011;11096;51.338;12.524;2022-09-09T02:18:27;2.78;;;1.50;;
21862;SDS011;11096;51.338;12.524;2022-09-09T02:20:58;2.17;;;1.35;;
21862;SDS011;11096;51.338;12.524;2022-09-09T02:23:24;4.70;;;1.55;;
21862;SDS011;11096;51.338;12.524;2022-09-09T02:25:50;4.10;;;1.70;;
21862;SDS011;11096;51.338;12.524;2022-09-09T02:28:19;2.38;;;1.40;;
21862;SDS011;11096;51.338;12.524;2022-09-09T02:30:47;2.55;;;1.50;;
21862;SDS011;11096;51.338;12.524;2022-09-09T02:33:20;2.88;;;1.25;;
21862;SDS011;11096;51.338;12.524;2022-09-09T02:35:50;3.22;;;1.42;;
21862;SDS011;11096;51.338;12.524;2022-09-09T02:38:16;2.60;;;1.40;;
21862;SDS011;11096;51.338;12.524;2022-09-09T02:40:42;2.38;;;1.73;;
21862;SDS011;11096;51.338;12.524;2022-09-09T02:43:08;1.90;;;1.38;;
21862;SDS011;11096;51.338;12.524;2022-09-09T02:45:39;1.85;;;1.27;;
21862;SDS011;11096;51.338;12.524;2022-09-09T02:48:17;3.53;;;1.50;;
21862;SDS011;11096;51.338;12.524;2022-09-09T02:50:56;1.50;;;1.35;;
21862;SDS011;11096;51.338;12.524;2022-09-09T02:53:46;4.70;;;1.45;;
21862;SDS011;11096;51.338;12.524;2022-09-09T02:56:22;2.28;;;1.15;;
21862;SDS011;11096;51.338;12.524;2022-09-09T02:58:53;1.60;;;1.50;;
21862;SDS011;11096;51.338;12.524;2022-09-09T03:01:19;1.45;;;1.30;;
21862;SDS011;11096;51.338;12.524;2022-09-09T03:03:45;2.13;;;1.15;;
21862;SDS011;11096;51.338;12.524;2022-09-09T03:06:11;2.25;;;1.17;;
21862;SDS011;11096;51.338;12.524;2022-09-09T03:08:37;2.05;;;1.20;;
21862;SDS011;11096;51.338;12.524;2022-09-09T03:11:03;2.47;;;1.25;;
21862;SDS011;11096;51.338;12.524;2022-09-09T03:13:29;1.45;;;1.25;;
21862;SDS011;11096;51.338;12.524;2022-09-09T03:15:54;3.15;;;1.40;;
21862;SDS011;11096;51.338;12.524;2022-09-09T03:18:20;1.65;;;1.13;;
21862;SDS011;11096;51.338;12.524;2022-09-09T03:20:45;1.88;;;1.02;;
21862;SDS011;11096;51.338;12.524;2022-09-09T03:23:13;2.15;;;1.20;;
21862;SDS011;11096;51.338;12.524;2022-09-09T03:25:39;2.03;;;1.42;;
21862;SDS011;11096;51.338;12.524;2022-09-09T03:28:04;2.85;;;1.23;;
21862;SDS011;11096;51.338;12.524;2022-09-09T03:30:29;6.20;;;1.42;;
21862;SDS011;11096;51.338;12.524;2022-09-09T03:32:55;3.63;;;1.25;;
21862;SDS011;11096;51.338;12.524;2022-09-09T03:35:20;2.58;;;1.40;;
21862;SDS011;11096;51.338;12.524;2022-09-09T03:37:46;3.85;;;1.30;;
21862;SDS011;11096;51.338;12.524;2022-09-09T03:40:11;3.63;;;1.25;;
21862;SDS011;11096;51.338;12.524;2022-09-09T03:42:37;2.63;;;1.48;;
21862;SDS011;11096;51.338;12.524;2022-09-09T03:45:04;1.92;;;1.20;;
21862;SDS011;11096;51.338;12.524;2022-09-09T03:47:31;1.85;;;1.20;;
21862;SDS011;11096;51.338;12.524;2022-09-09T03:49:57;1.90;;;1.17;;
21862;SDS011;11096;51.338;12.524;2022-09-09T03:52:22;2.42;;;1.10;;
21862;SDS011;11096;51.338;12.524;2022-09-09T03:54:50;1.90;;;1.17;;
21862;SDS011;11096;51.338;12.524;2022-09-09T03:57:16;3.95;;;1.02;;
21862;SDS011;11096;51.338;12.524;2022-09-09T03:59:42;1.48;;;1.02;;
21862;SDS011;11096;51.338;12.524;2022-09-09T04:02:08;2.10;;;1.25;;
21862;SDS011;11096;51.338;12.524;2022-09-09T04:04:34;2.72;;;1.52;;
21862;SDS011;11096;51.338;12.524;2022-09-09T04:06:59;1.58;;;1.27;;
21862;SDS011;11096;51.338;12.524;2022-09-09T04:09:24;1.45;;;1.13;;
21862;SDS011;11096;51.338;12.524;2022-09-09T04:11:50;3.00;;;1.10;;
21862;SDS011;11096;51.338;12.524;2022-09-09T04:14:15;2.03;;;1.10;;
21862;SDS011;11096;51.338;12.524;2022-09-09T04:16:41;1.50;;;1.20;;
21862;SDS011;11096;51.338;12.524;2022-09-09T04:19:09;2.83;;;1.35;;
21862;SDS011;11096;51.338;12.524;2022-09-09T04:21:37;2.85;;;1.30;;
21862;SDS011;11096;51.338;12.524;2022-09-09T04:24:04;1.10;;;1.00;;
21862;SDS011;11096;51.338;12.524;2022-09-09T04:26:30;2.80;;;1.30;;
21862;SDS011;11096;51.338;12.524;2022-09-09T04:28:55;1.90;;;1.10;;
21862;SDS011;11096;51.338;12.524;2022-09-09T04:31:21;1.17;;;1.08;;
21862;SDS011;11096;51.338;12.524;2022-09-09T04:33:51;1.27;;;0.90;;
21862;SDS011;11096;51.338;12.524;2022-09-09T04:36:17;2.85;;;1.50;;
21862;SDS011;11096;51.338;12.524;2022-09-09T04:38:44;1.17;;;0.95;;
21862;SDS011;11096;51.338;12.524;2022-09-09T04:41:10;3.30;;;1.17;;
21862;SDS011;11096;51.338;12.524;2022-09-09T04:43:36;3.95;;;1.20;;
21862;SDS011;11096;51.338;12.524;2022-09-09T04:46:03;1.73;;;1.35;;
21862;SDS011;11096;51.338;12.524;2022-09-09T04:48:28;3.13;;;1.30;;
21862;SDS011;11096;51.338;12.524;2022-09-09T04:50:57;2.50;;;1.42;;
21862;SDS011;11096;51.338;12.524;2022-09-09T04:53:24;2.30;;;1.48;;
21862;SDS011;11096;51.338;12.524;2022-09-09T04:55:50;1.42;;;0.98;;
21862;SDS011;11096;51.338;12.524;2022-09-09T04:58:16;2.72;;;1.40;;
21862;SDS011;11096;51.338;12.524;2022-09-09T05:00:42;4.57;;;1.17;;
21862;SDS011;11096;51.338;12.524;2022-09-09T05:03:07;1.60;;;1.00;;
21862;SDS011;11096;51.338;12.524;2022-09-09T05:05:34;1.80;;;0.90;;
21862;SDS011;11096;51.338;12.524;2022-09-09T05:08:03;5.10;;;1.25;;
21862;SDS011;11096;51.338;12.524;2022-09-09T05:10:30;4.88;;;1.42;;
21862;SDS011;11096;51.338;12.524;2022-09-09T05:12:56;1.63;;;1.10;;
21862;SDS011;11096;51.338;12.524;2022-09-09T05:15:21;1.40;;;0.98;;
21862;SDS011;11096;51.338;12.524;2022-09-09T05:17:47;1.20;;;1.10;;
21862;SDS011;11096;51.338;12.524;2022-09-09T05:20:12;3.63;;;1.27;;
21862;SDS011;11096;51.338;12.524;2022-09-09T05:22:38;2.60;;;1.10;;
21862;SDS011;11096;51.338;12.524;2022-09-09T05:25:03;2.67;;;0.70;;
21862;SDS011;11096;51.338;12.524;2022-09-09T05:27:29;2.40;;;1.15;;
21862;SDS011;11096;51.338;12.524;2022-09-09T05:29:56;1.77;;;0.98;;
21862;SDS011;11096;51.338;12.524;2022-09-09T05:32:22;1.50;;;0.90;;
21862;SDS011;11096;51.338;12.524;2022-09-09T05:34:47;3.75;;;1.23;;
21862;SDS011;11096;51.338;12.524;2022-09-09T05:37:13;2.05;;;1.15;;
21862;SDS011;11096;51.338;12.524;2022-09-09T05:39:39;1.90;;;1.08;;
21862;SDS011;11096;51.338;12.524;2022-09-09T05:42:04;1.52;;;0.93;;
21862;SDS011;11096;51.338;12.524;2022-09-09T05:44:30;1.27;;;1.10;;
21862;SDS011;11096;51.338;12.524;2022-09-09T05:46:55;5.35;;;1.10;;
21862;SDS011;11096;51.338;12.524;2022-09-09T05:49:22;2.38;;;1.23;;
21862;SDS011;11096;51.338;12.524;2022-09-09T05:51:48;3.30;;;1.02;;
21862;SDS011;11096;51.338;12.524;2022-09-09T05:54:15;2.33;;;1.10;;
21862;SDS011;11096;51.338;12.524;2022-09-09T05:56:41;2.55;;;1.05;;
21862;SDS011;11096;51.338;12.524;2022-09-09T05:59:06;1.15;;;1.02;;
21862;SDS011;11096;51.338;12.524;2022-09-09T06:01:34;4.20;;;1.17;;
21862;SDS011;11096;51.338;12.524;2022-09-09T06:04:01;1.02;;;0.90;;
21862;SDS011;11096;51.338;12.524;2022-09-09T06:06:29;3.70;;;0.93;;
21862;SDS011;11096;51.338;12.524;2022-09-09T06:08:56;3.72;;;1.13;;
21862;SDS011;11096;51.338;12.524;2022-09-09T06:11:24;2.00;;;1.30;;
21862;SDS011;11096;51.338;12.524;2022-09-09T06:13:51;5.50;;;1.48;;
21862;SDS011;11096;51.338;12.524;2022-09-09T06:16:19;4.13;;;1.10;;
21862;SDS011;11096;51.338;12.524;2022-09-09T06:18:48;2.63;;;1.17;;
21862;SDS011;11096;51.338;12.524;2022-09-09T06:21:21;3.65;;;1.05;;
21862;SDS011;11096;51.338;12.524;2022-09-09T06:23:47;4.22;;;0.95;;
21862;SDS011;11096;51.338;12.524;2022-09-09T06:26:14;3.42;;;1.42;;
21862;SDS011;11096;51.338;12.524;2022-09-09T06:28:47;3.30;;;1.05;;
21862;SDS011;11096;51.338;12.524;2022-09-09T06:31:15;2.28;;;0.95;;
21862;SDS011;11096;51.338;12.524;2022-09-09T06:33:42;2.08;;;1.02;;
21862;SDS011;11096;51.338;12.524;2022-09-09T06:36:12;1.52;;;0.73;;
21862;SDS011;11096;51.338;12.524;2022-09-09T06:38:43;4.45;;;0.90;;
21862;SDS011;11096;51.338;12.524;2022-09-09T06:41:09;2.53;;;0.80;;
21862;SDS011;11096;51.338;12.524;2022-09-09T06:43:36;2.13;;;0.88;;
21862;SDS011;11096;51.338;12.524;2022-09-09T06:46:03;3.50;;;0.90;;
21862;SDS011;11096;51.338;12.524;2022-09-09T06:48:33;7.60;;;1.10;;
21862;SDS011;11096;51.338;12.524;2022-09-09T06:51:09;4.90;;;0.93;;
21862;SDS011;11096;51.338;12.524;2022-09-09T06:53:37;3.22;;;1.20;;
21862;SDS011;11096;51.338;12.524;2022-09-09T06:58:34;4.00;;;0.98;;
21862;SDS011;11096;51.338;12.524;2022-09-09T07:01:01;3.33;;;1.25;;
21862;SDS011;11096;51.338;12.524;2022-09-09T07:03:28;1.40;;;1.00;;
21862;SDS011;11096;51.338;12.524;2022-09-09T07:05:54;4.57;;;0.90;;
21862;SDS011;11096;51.338;12.524;2022-09-09T07:08:21;2.28;;;1.02;;
21862;SDS011;11096;51.338;12.524;2022-09-09T07:10:46;3.83;;;1.00;;
21862;SDS011;11096;51.338;12.524;2022-09-09T07:13:12;1.77;;;0.85;;
21862;SDS011;11096;51.338;12.524;2022-09-09T07:15:40;2.85;;;0.80;;
21862;SDS011;11096;51.338;12.524;2022-09-09T07:18:06;3.53;;;0.90;;
21862;SDS011;11096;51.338;12.524;2022-09-09T07:20:31;1.98;;;0.80;;
21862;SDS011;11096;51.338;12.524;2022-09-09T07:22:57;1.73;;;0.90;;
21862;SDS011;11096;51.338;12.524;2022-09-09T07:25:23;2.92;;;1.23;;
21862;SDS011;11096;51.338;12.524;2022-09-09T07:27:48;1.75;;;1.05;;
21862;SDS011;11096;51.338;12.524;2022-09-09T07:30:14;3.60;;;0.80;;
21862;SDS011;11096;51.338;12.524;2022-09-09T07:32:39;1.13;;;0.90;;
21862;SDS011;11096;51.338;12.524;2022-09-09T07:35:05;1.70;;;0.90;;
21862;SDS011;11096;51.338;12.524;2022-09-09T07:37:30;3.08;;;0.90;;
21862;SDS011;11096;51.338;12.524;2022-09-09T07:39:56;2.10;;;0.73;;
21862;SDS011;11096;51.338;12.524;2022-09-09T07:42:21;1.48;;;0.63;;
21862;SDS011;11096;51.338;12.524;2022-09-09T07:44:46;1.63;;;0.82;;
21862;SDS011;11096;51.338;12.524;2022-09-09T07:47:12;0.95;;;0.73;;
21862;SDS011;11096;51.338;12.524;2022-09-09T07:49:37;1.27;;;0.73;;
21862;SDS011;11096;51.338;12.524;2022-09-09T07:52:03;2.15;;;0.73;;
21862;SDS011;11096;51.338;12.524;2022-09-09T07:54:28;1.50;;;0.68;;
21862;SDS011;11096;51.338;12.524;2022-09-09T07:56:53;3.03;;;0.77;;
21862;SDS011;11096;51.338;12.524;2022-09-09T07:59:19;0.80;;;0.63;;
21862;SDS011;11096;51.338;12.524;2022-09-09T08:01:46;0.88;;;0.57;;
21862;SDS011;11096;51.338;12.524;2022-09-09T08:04:13;1.83;;;0.77;;
21862;SDS011;11096;51.338;12.524;2022-09-09T08:06:46;1.65;;;0.60;;
21862;SDS011;11096;51.338;12.524;2022-09-09T08:09:17;3.65;;;0.60;;
21862;SDS011;11096;51.338;12.524;2022-09-09T08:11:43;1.88;;;0.77;;
21862;SDS011;11096;51.338;12.524;2022-09-09T08:14:09;4.45;;;0.50;;
21862;SDS011;11096;51.338;12.524;2022-09-09T08:16:40;4.45;;;0.73;;
21862;SDS011;11096;51.338;12.524;2022-09-09T08:19:07;1.50;;;0.60;;
21862;SDS011;11096;51.338;12.524;2022-09-09T08:21:34;1.27;;;0.55;;
21862;SDS011;11096;51.338;12.524;2022-09-09T08:24:01;1.55;;;0.50;;
21862;SDS011;11096;51.338;12.524;2022-09-09T08:26:32;2.45;;;0.60;;
21862;SDS011;11096;51.338;12.524;2022-09-09T08:29:02;3.00;;;0.50;;
21862;SDS011;11096;51.338;12.524;2022-09-09T08:31:31;4.55;;;0.60;;
21862;SDS011;11096;51.338;12.524;2022-09-09T08:33:57;3.45;;;0.50;;
21862;SDS011;11096;51.338;12.524;2022-09-09T08:36:28;1.17;;;0.80;;
21862;SDS011;11096;51.338;12.524;2022-09-09T08:38:56;3.88;;;0.80;;
21862;SDS011;11096;51.338;12.524;2022-09-09T08:44:07;0.93;;;0.52;;
21862;SDS011;11096;51.338;12.524;2022-09-09T08:50:07;2.05;;;0.50;;
21862;SDS011;11096;51.338;12.524;2022-09-09T08:52:48;6.43;;;0.98;;
21862;SDS011;11096;51.338;12.524;2022-09-09T08:57:49;2.13;;;0.50;;
21862;SDS011;11096;51.338;12.524;2022-09-09T09:00:18;1.33;;;0.43;;
21862;SDS011;11096;51.338;12.524;2022-09-09T09:02:57;2.83;;;0.60;;
21862;SDS011;11096;51.338;12.524;2022-09-09T09:06:26;1.60;;;0.60;;
21862;SDS011;11096;51.338;12.524;2022-09-09T09:09:00;2.95;;;0.63;;
21862;SDS011;11096;51.338;12.524;2022-09-09T09:11:53;1.15;;;0.43;;
21862;SDS011;11096;51.338;12.524;2022-09-09T09:14:26;1.67;;;0.60;;
21862;SDS011;11096;51.338;12.524;2022-09-09T09:17:00;2.22;;;0.52;;
21862;SDS011;11096;51.338;12.524;2022-09-09T09:19:29;1.48;;;0.65;;
21862;SDS011;11096;51.338;12.524;2022-09-09T09:30:18;1.77;;;0.40;;
21862;SDS011;11096;51.338;12.524;2022-09-09T09:32:51;1.45;;;0.47;;
21862;SDS011;11096;51.338;12.524;2022-09-09T09:35:26;2.75;;;0.40;;
21862;SDS011;11096;51.338;12.524;2022-09-09T09:37:51;1.35;;;0.30;;
21862;SDS011;11096;51.338;12.524;2022-09-09T09:40:18;2.00;;;0.40;;
21862;SDS011;11096;51.338;12.524;2022-09-09T09:42:55;5.47;;;0.47;;
21862;SDS011;11096;51.338;12.524;2022-09-09T09:45:26;2.78;;;0.45;;
21862;SDS011;11096;51.338;12.524;2022-09-09T09:48:00;2.95;;;0.50;;
21862;SDS011;11096;51.338;12.524;2022-09-09T09:50:31;2.90;;;0.32;;
21862;SDS011;11096;51.338;12.524;2022-09-09T09:52:59;0.98;;;0.30;;
21862;SDS011;11096;51.338;12.524;2022-09-09T09:55:26;1.10;;;0.30;;
21862;SDS011;11096;51.338;12.524;2022-09-09T09:58:00;1.95;;;0.50;;
21862;SDS011;11096;51.338;12.524;2022-09-09T10:00:27;2.75;;;0.43;;
21862;SDS011;11096;51.338;12.524;2022-09-09T10:02:52;2.00;;;0.63;;
21862;SDS011;11096;51.338;12.524;2022-09-09T10:08:04;5.72;;;0.40;;
21862;SDS011;11096;51.338;12.524;2022-09-09T10:19:24;1.55;;;0.73;;
21862;SDS011;11096;51.338;12.524;2022-09-09T10:35:49;2.55;;;0.40;;
21862;SDS011;11096;51.338;12.524;2022-09-09T10:51:49;1.00;;;0.43;;
21862;SDS011;11096;51.338;12.524;2022-09-09T10:54:36;3.13;;;0.40;;
21862;SDS011;11096;51.338;12.524;2022-09-09T10:59:57;2.15;;;0.38;;
21862;SDS011;11096;51.338;12.524;2022-09-09T11:02:30;1.65;;;0.30;;
21862;SDS011;11096;51.338;12.524;2022-09-09T11:07:33;3.35;;;0.40;;
21862;SDS011;11096;51.338;12.524;2022-09-09T11:10:06;3.20;;;0.40;;
21862;SDS011;11096;51.338;12.524;2022-09-09T11:12:44;2.33;;;0.20;;
21862;SDS011;11096;51.338;12.524;2022-09-09T11:18:08;1.48;;;0.47;;
21862;SDS011;11096;51.338;12.524;2022-09-09T11:20:38;1.25;;;0.30;;
21862;SDS011;11096;51.338;12.524;2022-09-09T11:23:11;3.58;;;0.70;;
21862;SDS011;11096;51.338;12.524;2022-09-09T11:25:43;1.55;;;0.20;;
21862;SDS011;11096;51.338;12.524;2022-09-09T11:33:49;3.58;;;0.40;;
21862;SDS011;11096;51.338;12.524;2022-09-09T11:36:26;3.67;;;0.40;;
21862;SDS011;11096;51.338;12.524;2022-09-09T11:41:44;6.53;;;0.68;;
21862;SDS011;11096;51.338;12.524;2022-09-09T11:44:16;1.50;;;0.40;;
21862;SDS011;11096;51.338;12.524;2022-09-09T11:46:52;1.10;;;0.40;;
21862;SDS011;11096;51.338;12.524;2022-09-09T11:51:53;2.33;;;0.52;;
21862;SDS011;11096;51.338;12.524;2022-09-09T11:56:54;0.77;;;0.30;;
21862;SDS011;11096;51.338;12.524;2022-09-09T12:01:57;1.98;;;0.40;;
21862;SDS011;11096;51.338;12.524;2022-09-09T12:06:51;1.48;;;0.43;;
21862;SDS011;11096;51.338;12.524;2022-09-09T12:09:31;1.05;;;0.20;;
21862;SDS011;11096;51.338;12.524;2022-09-09T12:14:43;2.85;;;0.40;;
21862;SDS011;11096;51.338;12.524;2022-09-09T12:17:23;3.58;;;0.40;;
21862;SDS011;11096;51.338;12.524;2022-09-09T12:28:22;3.65;;;0.60;;
21862;SDS011;11096;51.338;12.524;2022-09-09T12:31:00;1.65;;;0.40;;
21862;SDS011;11096;51.338;12.524;2022-09-09T12:33:37;2.03;;;0.30;;
21862;SDS011;11096;51.338;12.524;2022-09-09T12:36:10;2.75;;;0.38;;
21862;SDS011;11096;51.338;12.524;2022-09-09T12:38:40;2.80;;;0.40;;
21862;SDS011;11096;51.338;12.524;2022-09-09T12:41:28;2.50;;;0.55;;
21862;SDS011;11096;51.338;12.524;2022-09-09T12:44:06;1.40;;;0.50;;
21862;SDS011;11096;51.338;12.524;2022-09-09T12:46:44;5.00;;;0.88;;
21862;SDS011;11096;51.338;12.524;2022-09-09T12:49:25;3.08;;;0.43;;
21862;SDS011;11096;51.338;12.524;2022-09-09T12:52:07;2.22;;;0.40;;
21862;SDS011;11096;51.338;12.524;2022-09-09T12:54:42;4.20;;;0.40;;
21862;SDS011;11096;51.338;12.524;2022-09-09T12:57:12;4.68;;;0.70;;
21862;SDS011;11096;51.338;12.524;2022-09-09T12:59:40;4.15;;;0.65;;
21862;SDS011;11096;51.338;12.524;2022-09-09T13:02:21;1.33;;;0.30;;
21862;SDS011;11096;51.338;12.524;2022-09-09T13:04:48;1.88;;;0.30;;
21862;SDS011;11096;51.338;12.524;2022-09-09T13:07:15;1.80;;;0.47;;
21862;SDS011;11096;51.338;12.524;2022-09-09T13:09:41;4.32;;;0.50;;
21862;SDS011;11096;51.338;12.524;2022-09-09T13:12:13;2.00;;;0.25;;
21862;SDS011;11096;51.338;12.524;2022-09-09T13:14:42;5.05;;;0.52;;
21862;SDS011;11096;51.338;12.524;2022-09-09T13:17:24;1.30;;;0.30;;
21862;SDS011;11096;51.338;12.524;2022-09-09T13:19:53;1.65;;;0.32;;
21862;SDS011;11096;51.338;12.524;2022-09-09T13:22:34;2.10;;;0.40;;
21862;SDS011;11096;51.338;12.524;2022-09-09T13:25:02;3.40;;;0.40;;
21862;SDS011;11096;51.338;12.524;2022-09-09T13:27:35;2.40;;;0.35;;
21862;SDS011;11096;51.338;12.524;2022-09-09T13:30:24;4.75;;;0.30;;
21862;SDS011;11096;51.338;12.524;2022-09-09T13:38:19;2.03;;;0.30;;
21862;SDS011;11096;51.338;12.524;2022-09-09T13:41:19;4.45;;;0.70;;
21862;SDS011;11096;51.338;12.524;2022-09-09T13:43:46;0.28;;;0.25;;
21862;SDS011;11096;51.338;12.524;2022-09-09T13:49:22;3.22;;;0.47;;
21862;SDS011;11096;51.338;12.524;2022-09-09T13:51:50;3.95;;;0.95;;
21862;SDS011;11096;51.338;12.524;2022-09-09T13:54:18;3.60;;;0.70;;
21862;SDS011;11096;51.338;12.524;2022-09-09T13:56:44;1.30;;;0.30;;
21862;SDS011;11096;51.338;12.524;2022-09-09T13:59:18;2.85;;;0.40;;
21862;SDS011;11096;51.338;12.524;2022-09-09T14:01:48;2.97;;;0.57;;
21862;SDS011;11096;51.338;12.524;2022-09-09T14:04:17;1.98;;;0.43;;
21862;SDS011;11096;51.338;12.524;2022-09-09T14:06:43;1.60;;;0.40;;
21862;SDS011;11096;51.338;12.524;2022-09-09T14:09:12;1.08;;;0.35;;
21862;SDS011;11096;51.338;12.524;2022-09-09T14:11:39;1.52;;;0.30;;
21862;SDS011;11096;51.338;12.524;2022-09-09T14:14:05;2.33;;;0.22;;
21862;SDS011;11096;51.338;12.524;2022-09-09T14:16:30;4.82;;;0.47;;
21862;SDS011;11096;51.338;12.524;2022-09-09T14:18:56;0.40;;;0.20;;
21862;SDS011;11096;51.338;12.524;2022-09-09T14:21:22;1.17;;;0.30;;
21862;SDS011;11096;51.338;12.524;2022-09-09T14:23:47;1.45;;;0.35;;
21862;SDS011;11096;51.338;12.524;2022-09-09T14:26:13;1.98;;;0.30;;
21862;SDS011;11096;51.338;12.524;2022-09-09T14:28:38;1.85;;;0.45;;
21862;SDS011;11096;51.338;12.524;2022-09-09T14:31:05;1.90;;;0.35;;
21862;SDS011;11096;51.338;12.524;2022-09-09T14:33:30;1.10;;;0.30;;
21862;SDS011;11096;51.338;12.524;2022-09-09T14:35:56;1.60;;;0.30;;
21862;SDS011;11096;51.338;12.524;2022-09-09T14:38:23;0.20;;;0.20;;
21862;SDS011;11096;51.338;12.524;2022-09-09T14:40:49;1.23;;;0.30;;
21862;SDS011;11096;51.338;12.524;2022-09-09T14:43:14;0.93;;;0.30;;
21862;SDS011;11096;51.338;12.524;2022-09-09T14:45:39;1.08;;;0.50;;
21862;SDS011;11096;51.338;12.524;2022-09-09T14:48:05;0.70;;;0.28;;
21862;SDS011;11096;51.338;12.524;2022-09-09T14:50:30;0.65;;;0.30;;
21862;SDS011;11096;51.338;12.524;2022-09-09T14:52:55;2.30;;;0.60;;
21862;SDS011;11096;51.338;12.524;2022-09-09T14:55:21;1.58;;;0.60;;
21862;SDS011;11096;51.338;12.524;2022-09-09T14:57:46;3.03;;;0.73;;
21862;SDS011;11096;51.338;12.524;2022-09-09T15:00:11;2.05;;;0.20;;
21862;SDS011;11096;51.338;12.524;2022-09-09T15:02:38;0.50;;;0.30;;
21862;SDS011;11096;51.338;12.524;2022-09-09T15:05:04;0.60;;;0.40;;
21862;SDS011;11096;51.338;12.524;2022-09-09T15:07:29;1.13;;;0.30;;
21862;SDS011;11096;51.338;12.524;2022-09-09T15:09:56;1.55;;;0.50;;
21862;SDS011;11096;51.338;12.524;2022-09-09T15:12:23;1.75;;;0.20;;
21862;SDS011;11096;51.338;12.524;2022-09-09T15:14:48;3.40;;;0.57;;
21862;SDS011;11096;51.338;12.524;2022-09-09T15:17:15;1.05;;;0.28;;
21862;SDS011;11096;51.338;12.524;2022-09-09T15:19:40;1.95;;;0.40;;
21862;SDS011;11096;51.338;12.524;2022-09-09T15:22:07;2.40;;;0.30;;
21862;SDS011;11096;51.338;12.524;2022-09-09T15:24:33;0.52;;;0.25;;
21862;SDS011;11096;51.338;12.524;2022-09-09T15:26:59;0.90;;;0.30;;
21862;SDS011;11096;51.338;12.524;2022-09-09T15:29:25;0.57;;;0.22;;
21862;SDS011;11096;51.338;12.524;2022-09-09T15:31:50;0.55;;;0.22;;
21862;SDS011;11096;51.338;12.524;2022-09-09T15:34:16;2.92;;;0.30;;
21862;SDS011;11096;51.338;12.524;2022-09-09T15:36:42;2.80;;;0.20;;
21862;SDS011;11096;51.338;12.524;2022-09-09T15:39:10;1.40;;;0.40;;
21862;SDS011;11096;51.338;12.524;2022-09-09T15:41:37;2.20;;;0.22;;
21862;SDS011;11096;51.338;12.524;2022-09-09T15:44:03;1.88;;;0.40;;
21862;SDS011;11096;51.338;12.524;2022-09-09T15:46:32;2.13;;;0.35;;
21862;SDS011;11096;51.338;12.524;2022-09-09T15:51:34;0.80;;;0.20;;
21862;SDS011;11096;51.338;12.524;2022-09-09T15:54:00;1.13;;;0.30;;
21862;SDS011;11096;51.338;12.524;2022-09-09T15:56:26;4.38;;;0.52;;
21862;SDS011;11096;51.338;12.524;2022-09-09T15:58:53;3.92;;;0.40;;
21862;SDS011;11096;51.338;12.524;2022-09-09T16:01:20;1.08;;;0.30;;
21862;SDS011;11096;51.338;12.524;2022-09-09T16:03:45;0.50;;;0.38;;
21862;SDS011;11096;51.338;12.524;2022-09-09T16:06:12;2.15;;;0.60;;
21862;SDS011;11096;51.338;12.524;2022-09-09T16:08:42;1.13;;;0.57;;
21862;SDS011;11096;51.338;12.524;2022-09-09T16:11:28;2.95;;;0.40;;
21862;SDS011;11096;51.338;12.524;2022-09-09T16:13:56;0.88;;;0.40;;
21862;SDS011;11096;51.338;12.524;2022-09-09T16:16:24;1.80;;;0.38;;
21862;SDS011;11096;51.338;12.524;2022-09-09T16:18:53;1.17;;;0.30;;
21862;SDS011;11096;51.338;12.524;2022-09-09T16:21:23;3.85;;;0.60;;
21862;SDS011;11096;51.338;12.524;2022-09-09T16:23:56;1.15;;;0.40;;
21862;SDS011;11096;51.338;12.524;2022-09-09T16:26:29;3.67;;;0.50;;
21862;SDS011;11096;51.338;12.524;2022-09-09T16:28:57;1.60;;;0.40;;
21862;SDS011;11096;51.338;12.524;2022-09-09T16:31:23;0.43;;;0.30;;
21862;SDS011;11096;51.338;12.524;2022-09-09T16:33:51;2.05;;;0.38;;
21862;SDS011;11096;51.338;12.524;2022-09-09T16:36:17;2.72;;;0.30;;
21862;SDS011;11096;51.338;12.524;2022-09-09T16:38:44;0.93;;;0.28;;
21862;SDS011;11096;51.338;12.524;2022-09-09T16:41:10;1.90;;;0.30;;
21862;SDS011;11096;51.338;12.524;2022-09-09T16:43:37;2.38;;;0.40;;
21862;SDS011;11096;51.338;12.524;2022-09-09T16:46:03;1.05;;;0.47;;
21862;SDS011;11096;51.338;12.524;2022-09-09T16:48:37;1.55;;;0.45;;
21862;SDS011;11096;51.338;12.524;2022-09-09T16:51:04;0.35;;;0.30;;
21862;SDS011;11096;51.338;12.524;2022-09-09T16:53:34;1.73;;;0.50;;
21862;SDS011;11096;51.338;12.524;2022-09-09T16:58:57;0.57;;;0.45;;
21862;SDS011;11096;51.338;12.524;2022-09-09T17:01:25;1.15;;;0.45;;
21862;SDS011;11096;51.338;12.524;2022-09-09T17:03:52;2.75;;;0.40;;
21862;SDS011;11096;51.338;12.524;2022-09-09T17:06:24;0.28;;;0.28;;
21862;SDS011;11096;51.338;12.524;2022-09-09T17:08:54;3.25;;;0.30;;
21862;SDS011;11096;51.338;12.524;2022-09-09T17:11:20;0.63;;;0.20;;
21862;SDS011;11096;51.338;12.524;2022-09-09T17:13:46;0.50;;;0.20;;
21862;SDS011;11096;51.338;12.524;2022-09-09T17:16:13;3.55;;;0.50;;
21862;SDS011;11096;51.338;12.524;2022-09-09T17:18:40;1.83;;;0.30;;
21862;SDS011;11096;51.338;12.524;2022-09-09T17:21:07;2.03;;;0.38;;
21862;SDS011;11096;51.338;12.524;2022-09-09T17:23:35;1.00;;;0.22;;
21862;SDS011;11096;51.338;12.524;2022-09-09T17:26:03;2.33;;;0.43;;